sensor_id;sensor_type;location;lat;lon;timestamp;pressure;altitude;pressure_sealevel;temperature;humidity
30967;BME280;17649;51.836;8.330;2023-03-03T00:01:07;101816.09;;;3.84;nan
30967;BME280;17649;51.836;8.330;2023-03-03T00:04:08;101796.44;;;3.89;nan
30967;BME280;17649;51.836;8.330;2023-03-03T00:07:10;101796.44;;;3.87;nan
30967;BME280;17649;51.836;8.330;2023-03-03T00:10:12;101801.53;;;3.92;nan
30967;BME280;17649;51.836;8.330;2023-03-03T00:13:18;101800.59;;;3.98;nan
30967;BME280;17649;51.836;8.330;2023-03-03T00:16:27;101802.31;;;3.97;nan
30967;BME280;17649;51.836;8.330;2023-03-03T00:19:30;101803.19;;;3.95;nan
30967;BME280;17649;51.836;8.330;2023-03-03T00:22:36;101804.03;;;3.95;nan
30967;BME280;17649;51.836;8.330;2023-03-03T00:25:41;101808.38;;;3.85;nan
30967;BME280;17649;51.836;8.330;2023-03-03T00:28:48;101802.53;;;3.74;nan
30967;BME280;17649;51.836;8.330;2023-03-03T00:31:48;101806.72;;;3.81;nan
30967;BME280;17649;51.836;8.330;2023-03-03T00:34:51;101805.00;;;3.83;nan
30967;BME280;17649;51.836;8.330;2023-03-03T00:37:57;101810.06;;;3.91;nan
30967;BME280;17649;51.836;8.330;2023-03-03T00:40:58;101814.25;;;4.00;nan
30967;BME280;17649;51.836;8.330;2023-03-03T00:43:59;101808.25;;;4.04;nan
30967;BME280;17649;51.836;8.330;2023-03-03T00:47:26;101808.34;;;3.92;nan
30967;BME280;17649;51.836;8.330;2023-03-03T00:50:32;101805.81;;;3.88;nan
30967;BME280;17649;51.836;8.330;2023-03-03T00:53:32;101805.81;;;3.90;nan
30967;BME280;17649;51.836;8.330;2023-03-03T00:56:33;101804.09;;;3.91;nan
30967;BME280;17649;51.836;8.330;2023-03-03T00:59:33;101816.91;;;3.91;nan
30967;BME280;17649;51.836;8.330;2023-03-03T01:02:33;101807.59;;;3.80;nan
30967;BME280;17649;51.836;8.330;2023-03-03T01:05:35;101806.69;;;3.84;nan
30967;BME280;17649;51.836;8.330;2023-03-03T01:08:35;101786.13;;;3.94;nan
30967;BME280;17649;51.836;8.330;2023-03-03T01:11:36;101797.19;;;3.97;nan
30967;BME280;17649;51.836;8.330;2023-03-03T01:14:37;101797.16;;;4.00;nan
30967;BME280;17649;51.836;8.330;2023-03-03T01:17:38;101780.94;;;4.00;nan
30967;BME280;17649;51.836;8.330;2023-03-03T01:20:40;101779.28;;;3.96;nan
30967;BME280;17649;51.836;8.330;2023-03-03T01:23:40;101784.41;;;3.96;nan
30967;BME280;17649;51.836;8.330;2023-03-03T01:26:41;101800.59;;;3.98;nan
30967;BME280;17649;51.836;8.330;2023-03-03T01:29:41;101794.63;;;3.99;nan
30967;BME280;17649;51.836;8.330;2023-03-03T01:32:42;101794.66;;;3.96;nan
30967;BME280;17649;51.836;8.330;2023-03-03T01:35:43;101787.81;;;3.96;nan
30967;BME280;17649;51.836;8.330;2023-03-03T01:38:44;101791.16;;;4.04;nan
30967;BME280;17649;51.836;8.330;2023-03-03T01:41:44;101788.63;;;4.01;nan
30967;BME280;17649;51.836;8.330;2023-03-03T01:44:45;101794.63;;;4.02;nan
30967;BME280;17649;51.836;8.330;2023-03-03T01:47:51;101794.56;;;4.06;nan
30967;BME280;17649;51.836;8.330;2023-03-03T01:51:02;101792.03;;;4.03;nan
30967;BME280;17649;51.836;8.330;2023-03-03T01:54:11;101786.91;;;4.03;nan
30967;BME280;17649;51.836;8.330;2023-03-03T01:57:18;101798.84;;;4.06;nan
30967;BME280;17649;51.836;8.330;2023-03-03T02:00:21;101800.50;;;4.10;nan
30967;BME280;17649;51.836;8.330;2023-03-03T02:03:22;101796.19;;;4.12;nan
30967;BME280;17649;51.836;8.330;2023-03-03T02:06:28;101782.50;;;4.16;nan
30967;BME280;17649;51.836;8.330;2023-03-03T02:10:09;101779.81;;;4.28;nan
30967;BME280;17649;51.836;8.330;2023-03-03T02:13:10;101790.13;;;4.22;nan
30967;BME280;17649;51.836;8.330;2023-03-03T02:16:11;101790.94;;;4.26;nan
30967;BME280;17649;51.836;8.330;2023-03-03T02:19:32;101802.94;;;4.22;nan
30967;BME280;17649;51.836;8.330;2023-03-03T02:22:46;101801.25;;;4.21;nan
30967;BME280;17649;51.836;8.330;2023-03-03T02:28:55;101786.75;;;4.18;nan
30967;BME280;17649;51.836;8.330;2023-03-03T02:31:55;101795.34;;;4.11;nan
30967;BME280;17649;51.836;8.330;2023-03-03T02:34:55;101789.38;;;4.12;nan
30967;BME280;17649;51.836;8.330;2023-03-03T02:38:01;101799.63;;;4.11;nan
30967;BME280;17649;51.836;8.330;2023-03-03T02:41:27;101801.22;;;4.23;nan
30967;BME280;17649;51.836;8.330;2023-03-03T02:44:30;101791.00;;;4.21;nan
30967;BME280;17649;51.836;8.330;2023-03-03T02:47:30;101790.19;;;4.16;nan
30967;BME280;17649;51.836;8.330;2023-03-03T02:50:31;101792.72;;;4.21;nan
30967;BME280;17649;51.836;8.330;2023-03-03T02:53:31;101792.72;;;4.19;nan
30967;BME280;17649;51.836;8.330;2023-03-03T02:56:32;101802.94;;;4.24;nan
30967;BME280;17649;51.836;8.330;2023-03-03T02:59:32;101799.44;;;4.29;nan
30967;BME280;17649;51.836;8.330;2023-03-03T03:02:33;101808.84;;;4.29;nan
30967;BME280;17649;51.836;8.330;2023-03-03T03:05:33;101802.06;;;4.25;nan
30967;BME280;17649;51.836;8.330;2023-03-03T03:08:33;101802.09;;;4.22;nan
30967;BME280;17649;51.836;8.330;2023-03-03T03:11:34;101798.72;;;4.19;nan
30967;BME280;17649;51.836;8.330;2023-03-03T03:14:34;101805.56;;;4.14;nan
30967;BME280;17649;51.836;8.330;2023-03-03T03:17:38;101799.59;;;4.14;nan
30967;BME280;17649;51.836;8.330;2023-03-03T03:20:38;101804.72;;;4.17;nan
30967;BME280;17649;51.836;8.330;2023-03-03T03:23:40;101795.25;;;4.22;nan
30967;BME280;17649;51.836;8.330;2023-03-03T03:26:41;101801.28;;;4.18;nan
30967;BME280;17649;51.836;8.330;2023-03-03T03:29:41;101805.56;;;4.14;nan
30967;BME280;17649;51.836;8.330;2023-03-03T03:32:41;101800.53;;;4.07;nan
30967;BME280;17649;51.836;8.330;2023-03-03T03:35:42;101795.38;;;4.08;nan
30967;BME280;17649;51.836;8.330;2023-03-03T03:38:44;101789.47;;;4.05;nan
30967;BME280;17649;51.836;8.330;2023-03-03T03:41:45;101803.88;;;4.12;nan
30967;BME280;17649;51.836;8.330;2023-03-03T03:44:45;101801.28;;;4.18;nan
30967;BME280;17649;51.836;8.330;2023-03-03T03:47:45;101803.00;;;4.17;nan
30967;BME280;17649;51.836;8.330;2023-03-03T03:50:49;101800.47;;;4.13;nan
30967;BME280;17649;51.836;8.330;2023-03-03T03:53:49;101797.91;;;4.13;nan
30967;BME280;17649;51.836;8.330;2023-03-03T03:56:50;101777.41;;;4.13;nan
30967;BME280;17649;51.836;8.330;2023-03-03T03:59:50;101785.91;;;4.18;nan
30967;BME280;17649;51.836;8.330;2023-03-03T04:02:51;101783.28;;;4.24;nan
30967;BME280;17649;51.836;8.330;2023-03-03T04:05:52;101785.00;;;4.22;nan
30967;BME280;17649;51.836;8.330;2023-03-03T04:08:54;101784.22;;;4.15;nan
30967;BME280;17649;51.836;8.330;2023-03-03T04:11:54;101787.56;;;4.24;nan
30967;BME280;17649;51.836;8.330;2023-03-03T04:14:55;101796.94;;;4.25;nan
30967;BME280;17649;51.836;8.330;2023-03-03T04:17:55;101785.97;;;4.12;nan
30967;BME280;17649;51.836;8.330;2023-03-03T04:20:56;101791.81;;;4.25;nan
30967;BME280;17649;51.836;8.330;2023-03-03T04:23:56;101797.78;;;4.25;nan
30967;BME280;17649;51.836;8.330;2023-03-03T04:26:56;101803.78;;;4.23;nan
30967;BME280;17649;51.836;8.330;2023-03-03T04:29:57;101804.69;;;4.18;nan
30967;BME280;17649;51.836;8.330;2023-03-03T04:32:57;101800.38;;;4.24;nan
30967;BME280;17649;51.836;8.330;2023-03-03T04:35:57;101805.44;;;4.27;nan
30967;BME280;17649;51.836;8.330;2023-03-03T04:38:58;101807.22;;;4.22;nan
30967;BME280;17649;51.836;8.330;2023-03-03T04:41:58;101814.00;;;4.26;nan
30967;BME280;17649;51.836;8.330;2023-03-03T04:44:58;101808.97;;;4.16;nan
30967;BME280;17649;51.836;8.330;2023-03-03T04:47:59;101806.41;;;4.15;nan
30967;BME280;17649;51.836;8.330;2023-03-03T04:50:59;101810.72;;;4.13;nan
30967;BME280;17649;51.836;8.330;2023-03-03T04:53:59;101800.53;;;4.07;nan
30967;BME280;17649;51.836;8.330;2023-03-03T04:57:00;101792.84;;;4.08;nan
30967;BME280;17649;51.836;8.330;2023-03-03T05:00:00;101806.47;;;4.09;nan
30967;BME280;17649;51.836;8.330;2023-03-03T05:03:01;101804.84;;;3.99;nan
30967;BME280;17649;51.836;8.330;2023-03-03T05:06:01;101814.28;;;3.97;nan
30967;BME280;17649;51.836;8.330;2023-03-03T05:09:01;101816.94;;;3.87;nan
30967;BME280;17649;51.836;8.330;2023-03-03T05:12:02;101819.44;;;3.94;nan
30967;BME280;17649;51.836;8.330;2023-03-03T05:15:03;101804.09;;;3.92;nan
30967;BME280;17649;51.836;8.330;2023-03-03T05:18:04;101808.44;;;3.79;nan
30967;BME280;17649;51.836;8.330;2023-03-03T05:21:05;101805.00;;;3.82;nan
30967;BME280;17649;51.836;8.330;2023-03-03T05:24:05;101819.53;;;3.81;nan
30967;BME280;17649;51.836;8.330;2023-03-03T05:27:06;101824.59;;;3.86;nan
30967;BME280;17649;51.836;8.330;2023-03-03T05:30:07;101822.88;;;3.86;nan
30967;BME280;17649;51.836;8.330;2023-03-03T05:33:11;101835.72;;;3.83;nan
30967;BME280;17649;51.836;8.330;2023-03-03T05:36:12;101828.03;;;3.88;nan
30967;BME280;17649;51.836;8.330;2023-03-03T05:39:12;101834.84;;;3.84;nan
30967;BME280;17649;51.836;8.330;2023-03-03T05:42:13;101832.28;;;3.84;nan
30967;BME280;17649;51.836;8.330;2023-03-03T05:45:13;101841.69;;;3.88;nan
30967;BME280;17649;51.836;8.330;2023-03-03T05:48:14;101840.81;;;3.89;nan
30967;BME280;17649;51.836;8.330;2023-03-03T05:51:14;101845.09;;;3.89;nan
30967;BME280;17649;51.836;8.330;2023-03-03T05:54:14;101845.09;;;3.87;nan
30967;BME280;17649;51.836;8.330;2023-03-03T05:57:15;101842.63;;;3.75;nan
30967;BME280;17649;51.836;8.330;2023-03-03T06:00:15;101851.09;;;3.83;nan
30967;BME280;17649;51.836;8.330;2023-03-03T06:03:16;101842.59;;;3.78;nan
30967;BME280;17649;51.836;8.330;2023-03-03T06:06:17;101849.47;;;3.75;nan
30967;BME280;17649;51.836;8.330;2023-03-03T06:09:18;101854.59;;;3.73;nan
30967;BME280;17649;51.836;8.330;2023-03-03T06:12:19;101861.53;;;3.59;nan
30967;BME280;17649;51.836;8.330;2023-03-03T06:15:21;101856.41;;;3.59;nan
30967;BME280;17649;51.836;8.330;2023-03-03T06:18:22;101858.00;;;3.71;nan
30967;BME280;17649;51.836;8.330;2023-03-03T06:21:22;101862.31;;;3.66;nan
30967;BME280;17649;51.836;8.330;2023-03-03T06:24:22;101857.16;;;3.70;nan
30967;BME280;17649;51.836;8.330;2023-03-03T06:27:24;101857.28;;;3.53;nan
30967;BME280;17649;51.836;8.330;2023-03-03T06:30:24;101861.56;;;3.51;nan
30967;BME280;17649;51.836;8.330;2023-03-03T06:33:26;101858.13;;;3.54;nan
30967;BME280;17649;51.836;8.330;2023-03-03T06:36:26;101858.94;;;3.56;nan
30967;BME280;17649;51.836;8.330;2023-03-03T06:39:27;101855.53;;;3.55;nan
30967;BME280;17649;51.836;8.330;2023-03-03T06:42:27;101858.97;;;3.54;nan
30967;BME280;17649;51.836;8.330;2023-03-03T06:45:27;101872.59;;;3.59;nan
30967;BME280;17649;51.836;8.330;2023-03-03T06:48:29;101870.00;;;3.64;nan
30967;BME280;17649;51.836;8.330;2023-03-03T06:51:32;101873.53;;;3.45;nan
30967;BME280;17649;51.836;8.330;2023-03-03T06:54:34;101877.72;;;3.56;nan
30967;BME280;17649;51.836;8.330;2023-03-03T06:57:34;101876.78;;;3.68;nan
30967;BME280;17649;51.836;8.330;2023-03-03T07:00:35;101885.25;;;3.79;nan
30967;BME280;17649;51.836;8.330;2023-03-03T07:03:35;101890.38;;;3.79;nan
30967;BME280;17649;51.836;8.330;2023-03-03T07:06:36;101886.09;;;3.80;nan
30967;BME280;17649;51.836;8.330;2023-03-03T07:09:36;101903.25;;;3.73;nan
30967;BME280;17649;51.836;8.330;2023-03-03T07:12:36;101901.66;;;3.51;nan
30967;BME280;17649;51.836;8.330;2023-03-03T07:15:36;101905.81;;;3.66;nan
30967;BME280;17649;51.836;8.330;2023-03-03T07:18:50;101907.50;;;3.71;nan
30967;BME280;17649;51.836;8.330;2023-03-03T07:21:51;101902.47;;;3.54;nan
30967;BME280;17649;51.836;8.330;2023-03-03T07:24:58;101910.88;;;3.79;nan
30967;BME280;17649;51.836;8.330;2023-03-03T07:28:27;101911.00;;;3.58;nan
30967;BME280;17649;51.836;8.330;2023-03-03T07:31:33;101914.25;;;3.81;nan
30967;BME280;17649;51.836;8.330;2023-03-03T07:34:43;101915.03;;;3.94;nan
30967;BME280;17649;51.836;8.330;2023-03-03T07:37:45;101926.91;;;4.07;nan
30967;BME280;17649;51.836;8.330;2023-03-03T07:40:57;101934.53;;;4.12;nan
30967;BME280;17649;51.836;8.330;2023-03-03T07:44:06;101935.41;;;4.11;nan
30967;BME280;17649;51.836;8.330;2023-03-03T07:47:33;101942.19;;;4.18;nan
30967;BME280;17649;51.836;8.330;2023-03-03T07:50:34;101927.69;;;4.12;nan
30967;BME280;17649;51.836;8.330;2023-03-03T07:53:35;101950.59;;;4.34;nan
30967;BME280;17649;51.836;8.330;2023-03-03T07:56:37;101945.47;;;4.31;nan
30967;BME280;17649;51.836;8.330;2023-03-03T07:59:43;101945.38;;;4.43;nan
30967;BME280;17649;51.836;8.330;2023-03-03T08:05:54;101941.88;;;4.53;nan
30967;BME280;17649;51.836;8.330;2023-03-03T08:08:59;101948.66;;;4.62;nan
30967;BME280;17649;51.836;8.330;2023-03-03T08:12:33;101947.72;;;4.69;nan
30967;BME280;17649;51.836;8.330;2023-03-03T08:15:36;101944.31;;;4.68;nan
30967;BME280;17649;51.836;8.330;2023-03-03T08:18:39;101945.84;;;4.85;nan
30967;BME280;17649;51.836;8.330;2023-03-03T08:21:41;101943.31;;;4.83;nan
30967;BME280;17649;51.836;8.330;2023-03-03T08:24:43;101941.59;;;4.82;nan
30967;BME280;17649;51.836;8.330;2023-03-03T08:27:43;101952.56;;;4.96;nan
30967;BME280;17649;51.836;8.330;2023-03-03T08:30:43;101957.22;;;4.58;nan
30967;BME280;17649;51.836;8.330;2023-03-03T08:33:44;101948.47;;;4.80;nan
30967;BME280;17649;51.836;8.330;2023-03-03T08:36:45;101950.25;;;4.72;nan
30967;BME280;17649;51.836;8.330;2023-03-03T08:39:46;101943.25;;;4.88;nan
30967;BME280;17649;51.836;8.330;2023-03-03T08:42:46;101950.00;;;4.96;nan
30967;BME280;17649;51.836;8.330;2023-03-03T08:45:49;101945.94;;;4.77;nan
30967;BME280;17649;51.836;8.330;2023-03-03T08:48:50;101947.50;;;4.90;nan
30967;BME280;17649;51.836;8.330;2023-03-03T08:51:50;101957.44;;;5.19;nan
30967;BME280;17649;51.836;8.330;2023-03-03T08:54:51;101960.03;;;5.18;nan
30967;BME280;17649;51.836;8.330;2023-03-03T08:57:52;101964.03;;;5.40;nan
30967;BME280;17649;51.836;8.330;2023-03-03T09:00:52;101967.50;;;5.39;nan
30967;BME280;17649;51.836;8.330;2023-03-03T09:03:53;101956.09;;;5.58;nan
30967;BME280;17649;51.836;8.330;2023-03-03T09:06:54;101960.38;;;5.59;nan
30967;BME280;17649;51.836;8.330;2023-03-03T09:09:54;101962.34;;;5.41;nan
30967;BME280;17649;51.836;8.330;2023-03-03T09:13:03;101950.84;;;5.69;nan
30967;BME280;17649;51.836;8.330;2023-03-03T09:16:13;101949.59;;;5.97;nan
30967;BME280;17649;51.836;8.330;2023-03-03T09:19:32;101965.13;;;5.87;nan
30967;BME280;17649;51.836;8.330;2023-03-03T09:22:37;101967.38;;;6.10;nan
30967;BME280;17649;51.836;8.330;2023-03-03T09:25:37;101962.63;;;6.39;nan
30967;BME280;17649;51.836;8.330;2023-03-03T09:28:38;101956.88;;;6.26;nan
30967;BME280;17649;51.836;8.330;2023-03-03T09:31:40;101964.19;;;6.49;nan
30967;BME280;17649;51.836;8.330;2023-03-03T09:34:41;101964.28;;;6.45;nan
30967;BME280;17649;51.836;8.330;2023-03-03T09:37:50;101968.84;;;6.78;nan
30967;BME280;17649;51.836;8.330;2023-03-03T09:41:05;101972.22;;;6.80;nan
30967;BME280;17649;51.836;8.330;2023-03-03T09:44:33;101972.78;;;6.96;nan
30967;BME280;17649;51.836;8.330;2023-03-03T09:51:16;101979.53;;;7.03;nan
30967;BME280;17649;51.836;8.330;2023-03-03T09:54:30;101977.25;;;7.33;nan
30967;BME280;17649;51.836;8.330;2023-03-03T10:01:27;101972.69;;;7.45;nan
30967;BME280;17649;51.836;8.330;2023-03-03T10:04:42;101972.56;;;7.08;nan
30967;BME280;17649;51.836;8.330;2023-03-03T10:11:35;101973.38;;;7.54;nan
30967;BME280;17649;51.836;8.330;2023-03-03T10:21:16;101977.72;;;7.52;nan
30967;BME280;17649;51.836;8.330;2023-03-03T10:27:33;101986.31;;;7.91;nan
30967;BME280;17649;51.836;8.330;2023-03-03T10:53:34;102000.25;;;7.40;nan
30967;BME280;17649;51.836;8.330;2023-03-03T11:00:15;101994.03;;;7.92;nan
30967;BME280;17649;51.836;8.330;2023-03-03T11:07:05;101983.25;;;8.49;nan
30967;BME280;17649;51.836;8.330;2023-03-03T11:16:55;101989.16;;;6.92;nan
30967;BME280;17649;51.836;8.330;2023-03-03T11:23:44;101980.97;;;8.37;nan
30967;BME280;17649;51.836;8.330;2023-03-03T11:30:23;101974.25;;;8.98;nan
30967;BME280;17649;51.836;8.330;2023-03-03T11:33:39;101966.97;;;9.12;nan
30967;BME280;17649;51.836;8.330;2023-03-03T11:37:01;101959.84;;;9.20;nan
30967;BME280;17649;51.836;8.330;2023-03-03T11:40:19;101952.78;;;8.96;nan
30967;BME280;17649;51.836;8.330;2023-03-03T11:46:48;101966.22;;;9.09;nan
30967;BME280;17649;51.836;8.330;2023-03-03T11:49:56;101965.59;;;9.30;nan
30967;BME280;17649;51.836;8.330;2023-03-03T11:53:19;101964.00;;;9.26;nan
30967;BME280;17649;51.836;8.330;2023-03-03T11:59:36;101956.16;;;9.59;nan
30967;BME280;17649;51.836;8.330;2023-03-03T12:06:39;101947.16;;;11.26;nan
30967;BME280;17649;51.836;8.330;2023-03-03T12:17:05;101929.34;;;12.07;nan
30967;BME280;17649;51.836;8.330;2023-03-03T12:40:48;101911.19;;;10.19;nan
30967;BME280;17649;51.836;8.330;2023-03-03T12:50:41;101906.16;;;12.03;nan
30967;BME280;17649;51.836;8.330;2023-03-03T12:57:07;101897.56;;;12.63;nan
30967;BME280;17649;51.836;8.330;2023-03-03T13:03:56;101903.22;;;11.23;nan
30967;BME280;17649;51.836;8.330;2023-03-03T13:19:58;101880.97;;;14.49;nan
30967;BME280;17649;51.836;8.330;2023-03-03T13:23:07;101879.22;;;13.62;nan
30967;BME280;17649;51.836;8.330;2023-03-03T13:29:35;101877.22;;;14.03;nan
30967;BME280;17649;51.836;8.330;2023-03-03T13:32:58;101878.19;;;15.18;nan
30967;BME280;17649;51.836;8.330;2023-03-03T13:36:06;101873.13;;;14.67;nan
30967;BME280;17649;51.836;8.330;2023-03-03T13:39:17;101866.03;;;15.17;nan
30967;BME280;17649;51.836;8.330;2023-03-03T13:48:36;101851.13;;;19.08;nan
30967;BME280;17649;51.836;8.330;2023-03-03T13:52:17;101849.13;;;20.96;nan
30967;BME280;17649;51.836;8.330;2023-03-03T13:58:47;101840.06;;;21.96;nan
30967;BME280;17649;51.836;8.330;2023-03-03T14:01:57;101837.94;;;23.03;nan
30967;BME280;17649;51.836;8.330;2023-03-03T14:05:10;101828.56;;;21.97;nan
30967;BME280;17649;51.836;8.330;2023-03-03T14:21:37;101844.97;;;11.55;nan
30967;BME280;17649;51.836;8.330;2023-03-03T14:25:13;101841.38;;;10.92;nan
30967;BME280;17649;51.836;8.330;2023-03-03T14:28:21;101840.66;;;11.33;nan
30967;BME280;17649;51.836;8.330;2023-03-03T14:31:28;101826.44;;;12.86;nan
30967;BME280;17649;51.836;8.330;2023-03-03T14:34:39;101829.13;;;12.64;nan
30967;BME280;17649;51.836;8.330;2023-03-03T14:37:45;101828.22;;;13.59;nan
30967;BME280;17649;51.836;8.330;2023-03-03T14:40:46;101828.22;;;14.46;nan
30967;BME280;17649;51.836;8.330;2023-03-03T14:44:01;101830.69;;;14.65;nan
30967;BME280;17649;51.836;8.330;2023-03-03T14:50:29;101844.78;;;11.38;nan
30967;BME280;17649;51.836;8.330;2023-03-03T14:53:33;101834.00;;;10.58;nan
30967;BME280;17649;51.836;8.330;2023-03-03T14:56:36;101824.84;;;10.23;nan
30967;BME280;17649;51.836;8.330;2023-03-03T14:59:36;101823.00;;;10.26;nan
30967;BME280;17649;51.836;8.330;2023-03-03T15:02:43;101822.94;;;10.03;nan
30967;BME280;17649;51.836;8.330;2023-03-03T15:05:54;101820.66;;;9.67;nan
30967;BME280;17649;51.836;8.330;2023-03-03T15:12:39;101821.22;;;9.49;nan
30967;BME280;17649;51.836;8.330;2023-03-03T15:22:48;101821.94;;;8.98;nan
30967;BME280;17649;51.836;8.330;2023-03-03T15:26:05;101809.06;;;8.67;nan
30967;BME280;17649;51.836;8.330;2023-03-03T15:29:26;101813.16;;;7.39;nan
30967;BME280;17649;51.836;8.330;2023-03-03T15:42:10;101801.38;;;7.29;nan
30967;BME280;17649;51.836;8.330;2023-03-03T15:48:52;101797.47;;;7.50;nan
30967;BME280;17649;51.836;8.330;2023-03-03T15:55:23;101798.16;;;7.57;nan
30967;BME280;17649;51.836;8.330;2023-03-03T16:01:45;101802.00;;;7.39;nan
30967;BME280;17649;51.836;8.330;2023-03-03T16:05:02;101804.19;;;6.78;nan
30967;BME280;17649;51.836;8.330;2023-03-03T16:08:21;101802.31;;;6.86;nan
30967;BME280;17649;51.836;8.330;2023-03-03T16:12:20;101805.03;;;6.79;nan
30967;BME280;17649;51.836;8.330;2023-03-03T16:21:57;101799.81;;;6.39;nan
30967;BME280;17649;51.836;8.330;2023-03-03T16:31:56;101803.63;;;6.19;nan
30967;BME280;17649;51.836;8.330;2023-03-03T16:35:23;101807.81;;;6.23;nan
30967;BME280;17649;51.836;8.330;2023-03-03T16:38:36;101800.84;;;6.30;nan
30967;BME280;17649;51.836;8.330;2023-03-03T16:41:41;101800.13;;;6.22;nan
30967;BME280;17649;51.836;8.330;2023-03-03T16:51:19;101807.44;;;5.97;nan
30967;BME280;17649;51.836;8.330;2023-03-03T16:54:48;101811.97;;;5.81;nan
30967;BME280;17649;51.836;8.330;2023-03-03T17:08:53;101824.50;;;5.44;nan
30967;BME280;17649;51.836;8.330;2023-03-03T17:18:24;101819.00;;;5.12;nan
30967;BME280;17649;51.836;8.330;2023-03-03T17:24:59;101824.47;;;4.84;nan
30967;BME280;17649;51.836;8.330;2023-03-03T17:28:28;101829.69;;;4.75;nan
30967;BME280;17649;51.836;8.330;2023-03-03T17:35:20;101832.50;;;4.55;nan
30967;BME280;17649;51.836;8.330;2023-03-03T17:42:32;101847.91;;;4.52;nan
30967;BME280;17649;51.836;8.330;2023-03-03T17:45:40;101846.19;;;4.54;nan
30967;BME280;17649;51.836;8.330;2023-03-03T17:52:29;101850.56;;;4.43;nan
30967;BME280;17649;51.836;8.330;2023-03-03T17:55:42;101848.13;;;4.32;nan
30967;BME280;17649;51.836;8.330;2023-03-03T18:22:12;101863.31;;;4.49;nan
30967;BME280;17649;51.836;8.330;2023-03-03T18:25:25;101864.06;;;4.62;nan
30967;BME280;17649;51.836;8.330;2023-03-03T18:28:48;101870.84;;;4.66;nan
30967;BME280;17649;51.836;8.330;2023-03-03T18:35:20;101866.59;;;4.63;nan
30967;BME280;17649;51.836;8.330;2023-03-03T18:38:27;101870.00;;;4.61;nan
30967;BME280;17649;51.836;8.330;2023-03-03T18:41:32;101865.78;;;4.57;nan
30967;BME280;17649;51.836;8.330;2023-03-03T18:44:52;101870.06;;;4.58;nan
30967;BME280;17649;51.836;8.330;2023-03-03T18:48:13;101870.13;;;4.53;nan
30967;BME280;17649;51.836;8.330;2023-03-03T18:54:34;101868.56;;;4.37;nan
30967;BME280;17649;51.836;8.330;2023-03-03T18:57:36;101874.72;;;4.19;nan
30967;BME280;17649;51.836;8.330;2023-03-03T19:00:45;101873.84;;;4.22;nan
30967;BME280;17649;51.836;8.330;2023-03-03T19:09:51;101876.44;;;4.14;nan
30967;BME280;17649;51.836;8.330;2023-03-03T19:12:58;101871.31;;;4.17;nan
30967;BME280;17649;51.836;8.330;2023-03-03T19:16:10;101874.59;;;4.31;nan
30967;BME280;17649;51.836;8.330;2023-03-03T19:19:31;101878.00;;;4.35;nan
30967;BME280;17649;51.836;8.330;2023-03-03T19:22:44;101887.34;;;4.37;nan
30967;BME280;17649;51.836;8.330;2023-03-03T19:25:44;101877.22;;;4.25;nan
30967;BME280;17649;51.836;8.330;2023-03-03T19:28:54;101872.72;;;4.50;nan
30967;BME280;17649;51.836;8.330;2023-03-03T19:35:33;101877.81;;;4.52;nan
30967;BME280;17649;51.836;8.330;2023-03-03T19:51:39;101862.44;;;4.52;nan
30967;BME280;17649;51.836;8.330;2023-03-03T20:01:13;101876.03;;;4.57;nan
30967;BME280;17649;51.836;8.330;2023-03-03T20:07:39;101870.19;;;4.45;nan
30967;BME280;17649;51.836;8.330;2023-03-03T20:10:48;101875.16;;;4.61;nan
30967;BME280;17649;51.836;8.330;2023-03-03T20:13:56;101880.97;;;4.75;nan
30967;BME280;17649;51.836;8.330;2023-03-03T20:17:25;101880.16;;;4.71;nan
30967;BME280;17649;51.836;8.330;2023-03-03T20:23:38;101878.31;;;4.86;nan
30967;BME280;17649;51.836;8.330;2023-03-03T20:33:55;101872.13;;;5.00;nan
30967;BME280;17649;51.836;8.330;2023-03-03T20:37:12;101874.78;;;4.96;nan
30967;BME280;17649;51.836;8.330;2023-03-03T20:47:18;101872.22;;;4.96;nan
30967;BME280;17649;51.836;8.330;2023-03-03T20:50:34;101861.78;;;5.09;nan
30967;BME280;17649;51.836;8.330;2023-03-03T20:57:13;101860.13;;;5.02;nan
30967;BME280;17649;51.836;8.330;2023-03-03T21:00:49;101862.81;;;4.95;nan
30967;BME280;17649;51.836;8.330;2023-03-03T21:03:51;101864.63;;;4.85;nan
30967;BME280;17649;51.836;8.330;2023-03-03T21:06:52;101859.59;;;4.77;nan
30967;BME280;17649;51.836;8.330;2023-03-03T21:10:11;101860.75;;;4.51;nan
30967;BME280;17649;51.836;8.330;2023-03-03T21:13:27;101864.03;;;4.60;nan
30967;BME280;17649;51.836;8.330;2023-03-03T21:16:33;101858.13;;;4.55;nan
30967;BME280;17649;51.836;8.330;2023-03-03T21:19:34;101863.88;;;4.75;nan
30967;BME280;17649;51.836;8.330;2023-03-03T21:22:37;101857.13;;;4.68;nan
30967;BME280;17649;51.836;8.330;2023-03-03T21:25:54;101861.16;;;4.88;nan
30967;BME280;17649;51.836;8.330;2023-03-03T21:28:59;101857.22;;;4.62;nan
30967;BME280;17649;51.836;8.330;2023-03-03T21:32:06;101864.19;;;4.49;nan
30967;BME280;17649;51.836;8.330;2023-03-03T21:35:17;101865.91;;;4.47;nan
30967;BME280;17649;51.836;8.330;2023-03-03T21:38:34;101850.50;;;4.51;nan
30967;BME280;17649;51.836;8.330;2023-03-03T21:45:11;101865.59;;;4.78;nan
30967;BME280;17649;51.836;8.330;2023-03-03T21:48:12;101863.19;;;4.63;nan
30967;BME280;17649;51.836;8.330;2023-03-03T21:51:13;101850.41;;;4.57;nan
30967;BME280;17649;51.836;8.330;2023-03-03T21:54:14;101859.63;;;4.74;nan
30967;BME280;17649;51.836;8.330;2023-03-03T21:57:14;101855.22;;;4.86;nan
30967;BME280;17649;51.836;8.330;2023-03-03T22:00:15;101853.41;;;4.95;nan
30967;BME280;17649;51.836;8.330;2023-03-03T22:03:16;101846.44;;;5.06;nan
30967;BME280;17649;51.836;8.330;2023-03-03T22:06:19;101849.78;;;5.12;nan
30967;BME280;17649;51.836;8.330;2023-03-03T22:09:19;101843.81;;;5.09;nan
30967;BME280;17649;51.836;8.330;2023-03-03T22:12:20;101846.25;;;5.19;nan
30967;BME280;17649;51.836;8.330;2023-03-03T22:15:20;101841.09;;;5.22;nan
30967;BME280;17649;51.836;8.330;2023-03-03T22:18:21;101851.25;;;5.29;nan
30967;BME280;17649;51.836;8.330;2023-03-03T22:21:21;101845.25;;;5.29;nan
30967;BME280;17649;51.836;8.330;2023-03-03T22:24:22;101847.75;;;5.33;nan